sensor_id;sensor_type;location;lat;lon;timestamp;P1;durP1;ratioP1;P2;durP2;ratioP2
76765;SDS011;65707;52.362;6.588;2022-12-24T00:01:45;22.30;;;3.50;;
76765;SDS011;65707;52.362;6.588;2022-12-24T00:04:12;14.90;;;3.45;;
76765;SDS011;65707;52.362;6.588;2022-12-24T00:06:39;18.95;;;2.95;;
76765;SDS011;65707;52.362;6.588;2022-12-24T00:09:05;19.60;;;3.28;;
76765;SDS011;65707;52.362;6.588;2022-12-24T00:11:32;22.38;;;3.60;;
76765;SDS011;65707;52.362;6.588;2022-12-24T00:13:59;19.13;;;2.80;;
76765;SDS011;65707;52.362;6.588;2022-12-24T00:16:26;18.63;;;3.15;;
76765;SDS011;65707;52.362;6.588;2022-12-24T00:18:54;22.63;;;2.80;;
76765;SDS011;65707;52.362;6.588;2022-12-24T00:21:21;20.17;;;3.22;;
76765;SDS011;65707;52.362;6.588;2022-12-24T00:23:47;20.02;;;2.42;;
76765;SDS011;65707;52.362;6.588;2022-12-24T00:26:14;21.02;;;2.80;;
76765;SDS011;65707;52.362;6.588;2022-12-24T00:28:41;20.58;;;2.97;;
76765;SDS011;65707;52.362;6.588;2022-12-24T00:31:09;16.38;;;2.90;;
76765;SDS011;65707;52.362;6.588;2022-12-24T00:33:38;21.83;;;3.00;;
76765;SDS011;65707;52.362;6.588;2022-12-24T00:36:07;23.10;;;3.60;;
76765;SDS011;65707;52.362;6.588;2022-12-24T00:38:34;24.38;;;3.10;;
76765;SDS011;65707;52.362;6.588;2022-12-24T00:41:03;18.33;;;2.75;;
76765;SDS011;65707;52.362;6.588;2022-12-24T00:43:48;21.23;;;3.28;;
76765;SDS011;65707;52.362;6.588;2022-12-24T00:46:16;17.65;;;2.30;;
76765;SDS011;65707;52.362;6.588;2022-12-24T00:48:42;17.52;;;2.83;;
76765;SDS011;65707;52.362;6.588;2022-12-24T00:51:13;17.65;;;2.53;;
76765;SDS011;65707;52.362;6.588;2022-12-24T00:53:40;21.17;;;2.60;;
76765;SDS011;65707;52.362;6.588;2022-12-24T00:56:07;26.48;;;3.75;;
76765;SDS011;65707;52.362;6.588;2022-12-24T00:58:35;22.52;;;2.75;;
76765;SDS011;65707;52.362;6.588;2022-12-24T01:01:02;23.10;;;2.38;;
76765;SDS011;65707;52.362;6.588;2022-12-24T01:03:30;21.63;;;3.08;;
76765;SDS011;65707;52.362;6.588;2022-12-24T01:06:00;18.80;;;2.42;;
76765;SDS011;65707;52.362;6.588;2022-12-24T01:08:27;17.25;;;2.25;;
76765;SDS011;65707;52.362;6.588;2022-12-24T01:10:54;17.30;;;2.20;;
76765;SDS011;65707;52.362;6.588;2022-12-24T01:13:21;19.35;;;2.15;;
76765;SDS011;65707;52.362;6.588;2022-12-24T01:15:48;24.80;;;2.85;;
76765;SDS011;65707;52.362;6.588;2022-12-24T01:18:15;18.85;;;2.15;;
76765;SDS011;65707;52.362;6.588;2022-12-24T01:20:42;22.77;;;2.78;;
76765;SDS011;65707;52.362;6.588;2022-12-24T01:23:09;23.40;;;2.30;;
76765;SDS011;65707;52.362;6.588;2022-12-24T01:25:38;17.38;;;2.65;;
76765;SDS011;65707;52.362;6.588;2022-12-24T01:28:05;16.75;;;2.42;;
76765;SDS011;65707;52.362;6.588;2022-12-24T01:30:32;15.23;;;2.72;;
76765;SDS011;65707;52.362;6.588;2022-12-24T01:32:59;23.65;;;3.00;;
76765;SDS011;65707;52.362;6.588;2022-12-24T01:35:25;26.27;;;2.80;;
76765;SDS011;65707;52.362;6.588;2022-12-24T01:37:52;25.60;;;2.50;;
76765;SDS011;65707;52.362;6.588;2022-12-24T01:40:19;23.23;;;2.58;;
76765;SDS011;65707;52.362;6.588;2022-12-24T01:43:08;21.92;;;3.00;;
76765;SDS011;65707;52.362;6.588;2022-12-24T01:45:48;17.67;;;2.67;;
76765;SDS011;65707;52.362;6.588;2022-12-24T01:48:27;20.02;;;2.45;;
76765;SDS011;65707;52.362;6.588;2022-12-24T01:51:01;22.75;;;2.70;;
76765;SDS011;65707;52.362;6.588;2022-12-24T01:53:39;21.75;;;2.72;;
76765;SDS011;65707;52.362;6.588;2022-12-24T01:56:10;21.92;;;2.35;;
76765;SDS011;65707;52.362;6.588;2022-12-24T01:58:40;16.02;;;2.63;;
76765;SDS011;65707;52.362;6.588;2022-12-24T02:01:15;14.70;;;2.75;;
76765;SDS011;65707;52.362;6.588;2022-12-24T02:03:43;23.60;;;2.78;;
76765;SDS011;65707;52.362;6.588;2022-12-24T02:06:09;17.35;;;3.20;;
76765;SDS011;65707;52.362;6.588;2022-12-24T02:08:40;22.73;;;2.83;;
76765;SDS011;65707;52.362;6.588;2022-12-24T02:11:10;22.35;;;2.70;;
76765;SDS011;65707;52.362;6.588;2022-12-24T02:13:40;17.80;;;2.83;;
76765;SDS011;65707;52.362;6.588;2022-12-24T02:16:13;24.00;;;2.70;;
76765;SDS011;65707;52.362;6.588;2022-12-24T02:18:56;20.38;;;2.42;;
76765;SDS011;65707;52.362;6.588;2022-12-24T02:21:45;21.60;;;2.85;;
76765;SDS011;65707;52.362;6.588;2022-12-24T02:24:21;18.90;;;2.80;;
76765;SDS011;65707;52.362;6.588;2022-12-24T02:27:30;20.15;;;2.80;;
76765;SDS011;65707;52.362;6.588;2022-12-24T02:30:13;21.90;;;3.17;;
76765;SDS011;65707;52.362;6.588;2022-12-24T02:32:45;25.88;;;3.38;;
76765;SDS011;65707;52.362;6.588;2022-12-24T02:35:25;26.30;;;2.92;;
76765;SDS011;65707;52.362;6.588;2022-12-24T02:38:06;26.33;;;2.75;;
76765;SDS011;65707;52.362;6.588;2022-12-24T02:40:44;25.33;;;3.03;;
76765;SDS011;65707;52.362;6.588;2022-12-24T02:43:18;26.48;;;3.25;;
76765;SDS011;65707;52.362;6.588;2022-12-24T02:45:52;16.73;;;2.65;;
76765;SDS011;65707;52.362;6.588;2022-12-24T02:48:24;23.35;;;2.80;;
76765;SDS011;65707;52.362;6.588;2022-12-24T02:50:54;23.10;;;2.70;;
76765;SDS011;65707;52.362;6.588;2022-12-24T02:53:23;21.65;;;3.15;;
76765;SDS011;65707;52.362;6.588;2022-12-24T02:55:54;18.92;;;4.13;;
76765;SDS011;65707;52.362;6.588;2022-12-24T02:58:58;28.95;;;3.17;;
76765;SDS011;65707;52.362;6.588;2022-12-24T03:01:44;21.55;;;3.05;;
76765;SDS011;65707;52.362;6.588;2022-12-24T03:04:27;18.60;;;2.75;;
76765;SDS011;65707;52.362;6.588;2022-12-24T03:07:06;23.50;;;2.60;;
76765;SDS011;65707;52.362;6.588;2022-12-24T03:09:55;26.25;;;2.90;;
76765;SDS011;65707;52.362;6.588;2022-12-24T03:12:37;16.33;;;2.33;;
76765;SDS011;65707;52.362;6.588;2022-12-24T03:15:09;20.52;;;3.63;;
76765;SDS011;65707;52.362;6.588;2022-12-24T03:17:44;23.02;;;3.42;;
76765;SDS011;65707;52.362;6.588;2022-12-24T03:20:16;20.92;;;3.53;;
76765;SDS011;65707;52.362;6.588;2022-12-24T03:22:50;19.08;;;2.67;;
76765;SDS011;65707;52.362;6.588;2022-12-24T03:25:17;23.92;;;3.03;;
76765;SDS011;65707;52.362;6.588;2022-12-24T03:27:49;16.58;;;2.83;;
76765;SDS011;65707;52.362;6.588;2022-12-24T03:30:17;28.02;;;3.30;;
76765;SDS011;65707;52.362;6.588;2022-12-24T03:32:46;30.38;;;4.20;;
76765;SDS011;65707;52.362;6.588;2022-12-24T03:35:13;20.05;;;2.67;;
76765;SDS011;65707;52.362;6.588;2022-12-24T03:37:40;18.58;;;2.70;;
76765;SDS011;65707;52.362;6.588;2022-12-24T03:40:07;26.15;;;3.42;;
76765;SDS011;65707;52.362;6.588;2022-12-24T03:42:35;22.20;;;3.05;;
76765;SDS011;65707;52.362;6.588;2022-12-24T03:45:02;20.23;;;2.72;;
76765;SDS011;65707;52.362;6.588;2022-12-24T03:47:30;26.60;;;3.53;;
76765;SDS011;65707;52.362;6.588;2022-12-24T03:49:58;27.33;;;3.78;;
76765;SDS011;65707;52.362;6.588;2022-12-24T03:52:25;29.05;;;3.22;;
76765;SDS011;65707;52.362;6.588;2022-12-24T03:54:52;28.35;;;3.28;;
76765;SDS011;65707;52.362;6.588;2022-12-24T03:57:19;21.38;;;3.45;;
76765;SDS011;65707;52.362;6.588;2022-12-24T03:59:45;26.02;;;3.28;;
76765;SDS011;65707;52.362;6.588;2022-12-24T04:02:12;22.88;;;3.35;;
76765;SDS011;65707;52.362;6.588;2022-12-24T04:04:39;23.77;;;3.38;;
76765;SDS011;65707;52.362;6.588;2022-12-24T04:07:07;30.52;;;3.60;;
76765;SDS011;65707;52.362;6.588;2022-12-24T04:09:34;21.08;;;3.72;;
76765;SDS011;65707;52.362;6.588;2022-12-24T04:12:01;21.75;;;3.47;;
76765;SDS011;65707;52.362;6.588;2022-12-24T04:14:28;26.08;;;3.35;;
76765;SDS011;65707;52.362;6.588;2022-12-24T04:16:54;25.50;;;3.30;;
76765;SDS011;65707;52.362;6.588;2022-12-24T04:19:21;27.25;;;4.00;;
76765;SDS011;65707;52.362;6.588;2022-12-24T04:21:48;21.88;;;3.60;;
76765;SDS011;65707;52.362;6.588;2022-12-24T04:24:16;28.60;;;3.53;;
76765;SDS011;65707;52.362;6.588;2022-12-24T04:26:43;25.77;;;3.50;;
76765;SDS011;65707;52.362;6.588;2022-12-24T04:29:09;27.75;;;5.70;;
76765;SDS011;65707;52.362;6.588;2022-12-24T04:31:36;29.10;;;3.85;;
76765;SDS011;65707;52.362;6.588;2022-12-24T04:34:03;31.55;;;3.92;;
76765;SDS011;65707;52.362;6.588;2022-12-24T04:36:30;22.83;;;3.83;;
76765;SDS011;65707;52.362;6.588;2022-12-24T04:38:57;22.40;;;3.13;;
76765;SDS011;65707;52.362;6.588;2022-12-24T04:41:25;27.33;;;3.97;;
76765;SDS011;65707;52.362;6.588;2022-12-24T04:43:52;26.65;;;3.65;;
76765;SDS011;65707;52.362;6.588;2022-12-24T04:46:21;22.00;;;2.58;;
76765;SDS011;65707;52.362;6.588;2022-12-24T04:48:51;26.52;;;3.38;;
76765;SDS011;65707;52.362;6.588;2022-12-24T04:51:19;23.67;;;3.75;;
76765;SDS011;65707;52.362;6.588;2022-12-24T04:53:48;19.50;;;2.90;;
76765;SDS011;65707;52.362;6.588;2022-12-24T04:56:15;20.58;;;3.85;;
76765;SDS011;65707;52.362;6.588;2022-12-24T04:58:46;23.50;;;3.00;;
76765;SDS011;65707;52.362;6.588;2022-12-24T05:01:14;22.50;;;2.65;;
76765;SDS011;65707;52.362;6.588;2022-12-24T05:03:44;28.70;;;3.22;;
76765;SDS011;65707;52.362;6.588;2022-12-24T05:06:12;26.73;;;3.10;;
76765;SDS011;65707;52.362;6.588;2022-12-24T05:08:41;28.88;;;3.53;;
76765;SDS011;65707;52.362;6.588;2022-12-24T05:11:09;24.92;;;3.33;;
76765;SDS011;65707;52.362;6.588;2022-12-24T05:13:38;24.77;;;3.67;;
76765;SDS011;65707;52.362;6.588;2022-12-24T05:16:07;23.70;;;3.08;;
76765;SDS011;65707;52.362;6.588;2022-12-24T05:18:35;25.10;;;3.42;;
76765;SDS011;65707;52.362;6.588;2022-12-24T05:21:02;26.35;;;3.30;;
76765;SDS011;65707;52.362;6.588;2022-12-24T05:23:34;29.58;;;4.35;;
76765;SDS011;65707;52.362;6.588;2022-12-24T05:26:22;24.20;;;3.78;;
76765;SDS011;65707;52.362;6.588;2022-12-24T05:33:56;22.65;;;4.45;;
76765;SDS011;65707;52.362;6.588;2022-12-24T05:36:23;28.52;;;4.10;;
76765;SDS011;65707;52.362;6.588;2022-12-24T05:38:50;23.88;;;4.07;;
76765;SDS011;65707;52.362;6.588;2022-12-24T05:41:17;30.17;;;5.13;;
76765;SDS011;65707;52.362;6.588;2022-12-24T05:43:44;30.88;;;4.13;;
76765;SDS011;65707;52.362;6.588;2022-12-24T05:46:12;30.00;;;4.20;;
76765;SDS011;65707;52.362;6.588;2022-12-24T05:48:44;23.50;;;4.10;;
76765;SDS011;65707;52.362;6.588;2022-12-24T05:51:12;24.83;;;4.28;;
76765;SDS011;65707;52.362;6.588;2022-12-24T05:53:43;23.42;;;4.20;;
76765;SDS011;65707;52.362;6.588;2022-12-24T05:56:12;23.73;;;4.00;;
76765;SDS011;65707;52.362;6.588;2022-12-24T05:58:41;29.00;;;4.13;;
76765;SDS011;65707;52.362;6.588;2022-12-24T06:01:09;29.33;;;5.03;;
76765;SDS011;65707;52.362;6.588;2022-12-24T06:03:37;30.40;;;3.97;;
76765;SDS011;65707;52.362;6.588;2022-12-24T06:06:06;28.30;;;5.97;;
76765;SDS011;65707;52.362;6.588;2022-12-24T06:08:37;30.45;;;4.90;;
76765;SDS011;65707;52.362;6.588;2022-12-24T06:11:06;30.42;;;4.00;;
76765;SDS011;65707;52.362;6.588;2022-12-24T06:13:35;35.20;;;5.43;;
76765;SDS011;65707;52.362;6.588;2022-12-24T06:16:03;31.98;;;5.68;;
76765;SDS011;65707;52.362;6.588;2022-12-24T06:18:33;31.88;;;5.55;;
76765;SDS011;65707;52.362;6.588;2022-12-24T06:21:02;25.50;;;5.00;;
76765;SDS011;65707;52.362;6.588;2022-12-24T06:23:32;31.65;;;5.03;;
76765;SDS011;65707;52.362;6.588;2022-12-24T06:26:04;30.58;;;5.82;;
76765;SDS011;65707;52.362;6.588;2022-12-24T06:28:34;32.67;;;5.65;;
76765;SDS011;65707;52.362;6.588;2022-12-24T06:31:03;32.42;;;5.30;;
76765;SDS011;65707;52.362;6.588;2022-12-24T06:33:32;30.67;;;6.28;;
76765;SDS011;65707;52.362;6.588;2022-12-24T06:36:00;28.95;;;4.88;;
76765;SDS011;65707;52.362;6.588;2022-12-24T06:38:28;32.00;;;5.65;;
76765;SDS011;65707;52.362;6.588;2022-12-24T06:40:57;35.28;;;6.25;;
76765;SDS011;65707;52.362;6.588;2022-12-24T06:43:24;25.17;;;5.32;;
76765;SDS011;65707;52.362;6.588;2022-12-24T06:45:51;27.92;;;5.70;;
76765;SDS011;65707;52.362;6.588;2022-12-24T06:48:18;27.10;;;5.55;;
76765;SDS011;65707;52.362;6.588;2022-12-24T06:50:44;35.95;;;5.28;;
76765;SDS011;65707;52.362;6.588;2022-12-24T06:53:11;36.58;;;6.18;;
76765;SDS011;65707;52.362;6.588;2022-12-24T06:55:38;28.88;;;5.32;;
76765;SDS011;65707;52.362;6.588;2022-12-24T06:58:06;36.90;;;5.60;;
76765;SDS011;65707;52.362;6.588;2022-12-24T07:00:33;29.98;;;5.97;;
76765;SDS011;65707;52.362;6.588;2022-12-24T07:03:00;28.45;;;6.50;;
76765;SDS011;65707;52.362;6.588;2022-12-24T07:05:27;29.35;;;6.28;;
76765;SDS011;65707;52.362;6.588;2022-12-24T07:07:55;36.55;;;5.80;;
76765;SDS011;65707;52.362;6.588;2022-12-24T07:10:22;32.15;;;5.72;;
76765;SDS011;65707;52.362;6.588;2022-12-24T07:12:49;31.70;;;5.60;;
76765;SDS011;65707;52.362;6.588;2022-12-24T07:15:17;30.77;;;4.53;;
76765;SDS011;65707;52.362;6.588;2022-12-24T07:17:44;33.33;;;5.35;;
76765;SDS011;65707;52.362;6.588;2022-12-24T07:20:11;31.70;;;6.13;;
76765;SDS011;65707;52.362;6.588;2022-12-24T07:22:39;31.15;;;4.85;;
76765;SDS011;65707;52.362;6.588;2022-12-24T07:25:06;33.45;;;6.00;;
76765;SDS011;65707;52.362;6.588;2022-12-24T07:27:35;32.65;;;5.15;;
76765;SDS011;65707;52.362;6.588;2022-12-24T07:30:02;33.05;;;6.05;;
76765;SDS011;65707;52.362;6.588;2022-12-24T07:32:32;29.38;;;5.72;;
76765;SDS011;65707;52.362;6.588;2022-12-24T07:34:59;37.25;;;6.35;;
76765;SDS011;65707;52.362;6.588;2022-12-24T07:37:26;37.67;;;5.35;;
76765;SDS011;65707;52.362;6.588;2022-12-24T07:39:52;30.67;;;6.07;;
76765;SDS011;65707;52.362;6.588;2022-12-24T07:42:19;31.63;;;5.68;;
76765;SDS011;65707;52.362;6.588;2022-12-24T07:44:46;35.20;;;5.43;;
76765;SDS011;65707;52.362;6.588;2022-12-24T07:47:13;31.92;;;6.22;;
76765;SDS011;65707;52.362;6.588;2022-12-24T07:49:42;32.83;;;7.07;;
76765;SDS011;65707;52.362;6.588;2022-12-24T07:52:11;31.63;;;5.22;;
76765;SDS011;65707;52.362;6.588;2022-12-24T07:54:38;28.70;;;4.80;;
76765;SDS011;65707;52.362;6.588;2022-12-24T07:57:05;26.00;;;4.63;;
76765;SDS011;65707;52.362;6.588;2022-12-24T07:59:33;30.63;;;5.30;;
76765;SDS011;65707;52.362;6.588;2022-12-24T08:02:00;32.75;;;5.85;;
76765;SDS011;65707;52.362;6.588;2022-12-24T08:04:29;30.15;;;6.45;;
76765;SDS011;65707;52.362;6.588;2022-12-24T08:06:58;29.40;;;4.88;;
76765;SDS011;65707;52.362;6.588;2022-12-24T08:09:25;22.85;;;4.35;;
76765;SDS011;65707;52.362;6.588;2022-12-24T08:11:51;34.22;;;6.38;;
76765;SDS011;65707;52.362;6.588;2022-12-24T08:14:18;33.08;;;4.38;;
76765;SDS011;65707;52.362;6.588;2022-12-24T08:16:45;31.60;;;4.90;;
76765;SDS011;65707;52.362;6.588;2022-12-24T08:19:12;29.25;;;4.43;;
76765;SDS011;65707;52.362;6.588;2022-12-24T08:21:39;23.48;;;4.32;;
76765;SDS011;65707;52.362;6.588;2022-12-24T08:24:07;32.47;;;6.00;;
76765;SDS011;65707;52.362;6.588;2022-12-24T08:26:34;31.88;;;5.20;;
76765;SDS011;65707;52.362;6.588;2022-12-24T08:29:00;30.45;;;5.07;;
76765;SDS011;65707;52.362;6.588;2022-12-24T08:31:27;31.70;;;4.68;;
76765;SDS011;65707;52.362;6.588;2022-12-24T08:33:54;35.25;;;5.45;;
76765;SDS011;65707;52.362;6.588;2022-12-24T08:36:21;28.63;;;5.00;;
76765;SDS011;65707;52.362;6.588;2022-12-24T08:38:48;32.38;;;4.32;;
76765;SDS011;65707;52.362;6.588;2022-12-24T08:41:16;34.03;;;6.25;;
76765;SDS011;65707;52.362;6.588;2022-12-24T08:43:42;26.30;;;4.25;;
76765;SDS011;65707;52.362;6.588;2022-12-24T08:46:09;28.85;;;4.43;;
76765;SDS011;65707;52.362;6.588;2022-12-24T08:48:36;26.15;;;4.70;;
76765;SDS011;65707;52.362;6.588;2022-12-24T08:51:05;33.78;;;5.07;;
76765;SDS011;65707;52.362;6.588;2022-12-24T08:53:33;26.48;;;4.38;;
76765;SDS011;65707;52.362;6.588;2022-12-24T08:56:01;35.45;;;6.18;;
76765;SDS011;65707;52.362;6.588;2022-12-24T08:58:29;38.72;;;5.45;;
76765;SDS011;65707;52.362;6.588;2022-12-24T09:00:57;27.17;;;5.00;;
76765;SDS011;65707;52.362;6.588;2022-12-24T09:03:25;27.65;;;4.32;;
76765;SDS011;65707;52.362;6.588;2022-12-24T09:05:52;27.80;;;4.63;;
76765;SDS011;65707;52.362;6.588;2022-12-24T09:08:19;32.80;;;6.20;;
76765;SDS011;65707;52.362;6.588;2022-12-24T09:10:46;26.20;;;4.10;;
76765;SDS011;65707;52.362;6.588;2022-12-24T09:13:13;32.78;;;5.60;;
76765;SDS011;65707;52.362;6.588;2022-12-24T09:15:41;35.50;;;6.20;;
76765;SDS011;65707;52.362;6.588;2022-12-24T09:18:07;23.73;;;4.70;;
76765;SDS011;65707;52.362;6.588;2022-12-24T09:20:34;38.15;;;5.13;;
76765;SDS011;65707;52.362;6.588;2022-12-24T09:23:01;31.30;;;5.18;;
76765;SDS011;65707;52.362;6.588;2022-12-24T09:25:30;28.98;;;4.80;;
76765;SDS011;65707;52.362;6.588;2022-12-24T09:27:57;34.30;;;5.97;;
76765;SDS011;65707;52.362;6.588;2022-12-24T09:30:24;28.90;;;5.32;;
76765;SDS011;65707;52.362;6.588;2022-12-24T09:32:52;32.53;;;5.20;;
76765;SDS011;65707;52.362;6.588;2022-12-24T09:35:18;28.20;;;4.97;;
76765;SDS011;65707;52.362;6.588;2022-12-24T09:37:45;25.33;;;4.97;;
76765;SDS011;65707;52.362;6.588;2022-12-24T09:40:15;29.42;;;5.07;;
76765;SDS011;65707;52.362;6.588;2022-12-24T09:42:52;34.97;;;5.88;;
76765;SDS011;65707;52.362;6.588;2022-12-24T09:45:22;31.40;;;5.63;;
76765;SDS011;65707;52.362;6.588;2022-12-24T09:47:58;27.60;;;4.75;;
76765;SDS011;65707;52.362;6.588;2022-12-24T09:50:36;30.08;;;5.97;;
76765;SDS011;65707;52.362;6.588;2022-12-24T09:55:43;28.30;;;4.57;;
76765;SDS011;65707;52.362;6.588;2022-12-24T09:58:17;24.40;;;4.90;;
76765;SDS011;65707;52.362;6.588;2022-12-24T10:00:50;28.13;;;5.50;;
76765;SDS011;65707;52.362;6.588;2022-12-24T10:03:20;20.77;;;4.43;;
76765;SDS011;65707;52.362;6.588;2022-12-24T10:05:51;39.20;;;8.63;;
76765;SDS011;65707;52.362;6.588;2022-12-24T10:08:34;34.83;;;6.65;;
76765;SDS011;65707;52.362;6.588;2022-12-24T10:11:22;17.50;;;3.33;;
76765;SDS011;65707;52.362;6.588;2022-12-24T10:14:02;46.25;;;9.52;;
76765;SDS011;65707;52.362;6.588;2022-12-24T10:16:51;26.27;;;5.20;;
76765;SDS011;65707;52.362;6.588;2022-12-24T10:19:38;27.98;;;5.15;;
76765;SDS011;65707;52.362;6.588;2022-12-24T10:22:17;27.73;;;5.00;;
76765;SDS011;65707;52.362;6.588;2022-12-24T10:24:53;33.45;;;4.40;;
76765;SDS011;65707;52.362;6.588;2022-12-24T10:27:31;28.13;;;4.45;;
76765;SDS011;65707;52.362;6.588;2022-12-24T10:30:06;24.73;;;4.57;;
76765;SDS011;65707;52.362;6.588;2022-12-24T10:32:41;29.10;;;4.68;;
76765;SDS011;65707;52.362;6.588;2022-12-24T10:35:15;32.00;;;4.60;;
76765;SDS011;65707;52.362;6.588;2022-12-24T10:37:48;34.75;;;5.40;;
76765;SDS011;65707;52.362;6.588;2022-12-24T10:40:20;30.42;;;4.38;;
76765;SDS011;65707;52.362;6.588;2022-12-24T10:42:56;26.23;;;3.92;;
76765;SDS011;65707;52.362;6.588;2022-12-24T10:45:24;26.35;;;4.13;;
76765;SDS011;65707;52.362;6.588;2022-12-24T10:48:03;25.70;;;4.53;;
76765;SDS011;65707;52.362;6.588;2022-12-24T10:50:40;31.52;;;5.38;;
76765;SDS011;65707;52.362;6.588;2022-12-24T10:53:20;26.08;;;4.40;;
76765;SDS011;65707;52.362;6.588;2022-12-24T10:56:02;33.47;;;4.63;;
76765;SDS011;65707;52.362;6.588;2022-12-24T10:58:32;31.92;;;4.75;;
76765;SDS011;65707;52.362;6.588;2022-12-24T11:01:00;27.25;;;4.20;;
76765;SDS011;65707;52.362;6.588;2022-12-24T11:03:28;26.45;;;4.15;;
76765;SDS011;65707;52.362;6.588;2022-12-24T11:06:00;25.45;;;4.60;;
76765;SDS011;65707;52.362;6.588;2022-12-24T11:08:31;21.30;;;3.60;;
76765;SDS011;65707;52.362;6.588;2022-12-24T11:10:59;25.15;;;4.40;;
76765;SDS011;65707;52.362;6.588;2022-12-24T11:13:29;25.77;;;4.18;;
76765;SDS011;65707;52.362;6.588;2022-12-24T11:16:04;19.15;;;3.13;;
76765;SDS011;65707;52.362;6.588;2022-12-24T11:18:43;20.92;;;3.72;;
76765;SDS011;65707;52.362;6.588;2022-12-24T11:21:19;23.77;;;3.63;;
76765;SDS011;65707;52.362;6.588;2022-12-24T11:23:49;19.40;;;3.50;;
76765;SDS011;65707;52.362;6.588;2022-12-24T11:26:23;24.48;;;3.67;;
76765;SDS011;65707;52.362;6.588;2022-12-24T11:29:04;22.17;;;3.17;;
76765;SDS011;65707;52.362;6.588;2022-12-24T11:31:40;24.15;;;4.20;;
76765;SDS011;65707;52.362;6.588;2022-12-24T11:37:08;21.33;;;3.60;;
76765;SDS011;65707;52.362;6.588;2022-12-24T11:39:42;17.33;;;2.90;;
76765;SDS011;65707;52.362;6.588;2022-12-24T11:45:00;21.27;;;3.60;;
76765;SDS011;65707;52.362;6.588;2022-12-24T11:47:33;25.05;;;4.03;;
76765;SDS011;65707;52.362;6.588;2022-12-24T11:50:18;23.33;;;4.70;;
76765;SDS011;65707;52.362;6.588;2022-12-24T11:52:50;17.23;;;3.38;;
76765;SDS011;65707;52.362;6.588;2022-12-24T11:55:32;24.75;;;3.45;;
76765;SDS011;65707;52.362;6.588;2022-12-24T11:58:15;21.05;;;3.75;;
76765;SDS011;65707;52.362;6.588;2022-12-24T12:03:37;18.92;;;3.10;;
76765;SDS011;65707;52.362;6.588;2022-12-24T12:06:19;24.27;;;4.43;;
76765;SDS011;65707;52.362;6.588;2022-12-24T12:08:56;22.85;;;4.05;;
76765;SDS011;65707;52.362;6.588;2022-12-24T12:11:27;20.90;;;3.78;;
76765;SDS011;65707;52.362;6.588;2022-12-24T12:13:58;18.42;;;3.70;;
76765;SDS011;65707;52.362;6.588;2022-12-24T12:19:15;17.48;;;3.55;;
76765;SDS011;65707;52.362;6.588;2022-12-24T12:21:49;22.90;;;3.80;;
76765;SDS011;65707;52.362;6.588;2022-12-24T12:24:19;20.15;;;3.65;;
76765;SDS011;65707;52.362;6.588;2022-12-24T12:26:55;22.60;;;3.65;;
76765;SDS011;65707;52.362;6.588;2022-12-24T12:29:41;24.05;;;3.95;;
76765;SDS011;65707;52.362;6.588;2022-12-24T12:32:20;23.10;;;3.38;;
76765;SDS011;65707;52.362;6.588;2022-12-24T12:35:04;20.02;;;3.33;;
76765;SDS011;65707;52.362;6.588;2022-12-24T12:37:44;24.05;;;4.10;;
76765;SDS011;65707;52.362;6.588;2022-12-24T12:40:23;22.00;;;3.83;;
76765;SDS011;65707;52.362;6.588;2022-12-24T12:43:13;22.60;;;3.60;;
76765;SDS011;65707;52.362;6.588;2022-12-24T12:46:01;22.05;;;3.45;;
76765;SDS011;65707;52.362;6.588;2022-12-24T12:48:50;17.42;;;3.95;;
76765;SDS011;65707;52.362;6.588;2022-12-24T12:51:36;23.65;;;3.88;;
76765;SDS011;65707;52.362;6.588;2022-12-24T12:54:20;20.90;;;4.28;;
76765;SDS011;65707;52.362;6.588;2022-12-24T12:57:07;18.83;;;3.50;;
76765;SDS011;65707;52.362;6.588;2022-12-24T12:59:42;24.70;;;5.28;;
76765;SDS011;65707;52.362;6.588;2022-12-24T13:02:27;21.67;;;3.35;;
76765;SDS011;65707;52.362;6.588;2022-12-24T13:05:29;19.45;;;3.00;;
76765;SDS011;65707;52.362;6.588;2022-12-24T13:08:34;16.95;;;3.17;;
76765;SDS011;65707;52.362;6.588;2022-12-24T13:11:38;20.80;;;3.33;;
76765;SDS011;65707;52.362;6.588;2022-12-24T13:14:29;21.02;;;3.50;;
76765;SDS011;65707;52.362;6.588;2022-12-24T13:17:30;18.55;;;3.25;;
76765;SDS011;65707;52.362;6.588;2022-12-24T13:20:38;16.35;;;2.83;;
76765;SDS011;65707;52.362;6.588;2022-12-24T13:23:12;19.42;;;3.17;;
76765;SDS011;65707;52.362;6.588;2022-12-24T13:25:44;22.00;;;3.35;;
76765;SDS011;65707;52.362;6.588;2022-12-24T13:28:15;20.08;;;3.50;;
76765;SDS011;65707;52.362;6.588;2022-12-24T13:33:55;19.17;;;3.25;;
76765;SDS011;65707;52.362;6.588;2022-12-24T13:40:00;18.27;;;3.13;;
76765;SDS011;65707;52.362;6.588;2022-12-24T13:42:50;24.27;;;3.60;;
76765;SDS011;65707;52.362;6.588;2022-12-24T13:45:43;18.60;;;2.80;;
76765;SDS011;65707;52.362;6.588;2022-12-24T13:48:26;17.15;;;3.17;;
76765;SDS011;65707;52.362;6.588;2022-12-24T13:50:58;21.52;;;3.45;;
76765;SDS011;65707;52.362;6.588;2022-12-24T13:53:42;16.35;;;2.95;;
76765;SDS011;65707;52.362;6.588;2022-12-24T13:56:19;14.05;;;2.28;;
76765;SDS011;65707;52.362;6.588;2022-12-24T13:58:54;14.98;;;2.47;;
76765;SDS011;65707;52.362;6.588;2022-12-24T14:01:36;19.52;;;2.42;;
76765;SDS011;65707;52.362;6.588;2022-12-24T14:04:09;15.75;;;2.38;;
76765;SDS011;65707;52.362;6.588;2022-12-24T14:06:52;15.95;;;2.35;;
76765;SDS011;65707;52.362;6.588;2022-12-24T14:09:24;15.07;;;3.10;;
76765;SDS011;65707;52.362;6.588;2022-12-24T14:14:56;16.23;;;2.25;;
76765;SDS011;65707;52.362;6.588;2022-12-24T14:17:23;14.77;;;1.88;;
76765;SDS011;65707;52.362;6.588;2022-12-24T14:19:54;15.63;;;2.35;;
76765;SDS011;65707;52.362;6.588;2022-12-24T14:22:26;14.07;;;2.00;;
76765;SDS011;65707;52.362;6.588;2022-12-24T14:24:56;15.43;;;2.42;;
76765;SDS011;65707;52.362;6.588;2022-12-24T14:27:29;14.68;;;2.53;;
76765;SDS011;65707;52.362;6.588;2022-12-24T14:30:05;10.57;;;2.08;;
76765;SDS011;65707;52.362;6.588;2022-12-24T14:32:41;11.93;;;1.85;;
76765;SDS011;65707;52.362;6.588;2022-12-24T14:35:13;12.15;;;2.40;;
76765;SDS011;65707;52.362;6.588;2022-12-24T14:37:44;12.55;;;1.92;;
76765;SDS011;65707;52.362;6.588;2022-12-24T14:40:16;12.70;;;2.30;;
76765;SDS011;65707;52.362;6.588;2022-12-24T14:42:48;11.23;;;2.30;;
76765;SDS011;65707;52.362;6.588;2022-12-24T14:45:27;13.60;;;1.85;;
76765;SDS011;65707;52.362;6.588;2022-12-24T14:48:05;16.05;;;1.90;;
76765;SDS011;65707;52.362;6.588;2022-12-24T14:50:49;15.57;;;2.13;;
76765;SDS011;65707;52.362;6.588;2022-12-24T14:53:37;12.95;;;1.98;;
76765;SDS011;65707;52.362;6.588;2022-12-24T14:56:31;14.38;;;2.13;;
76765;SDS011;65707;52.362;6.588;2022-12-24T14:58:58;14.77;;;2.00;;
76765;SDS011;65707;52.362;6.588;2022-12-24T15:01:29;12.90;;;2.42;;
76765;SDS011;65707;52.362;6.588;2022-12-24T15:03:58;14.55;;;1.92;;
76765;SDS011;65707;52.362;6.588;2022-12-24T15:06:29;10.50;;;1.90;;
76765;SDS011;65707;52.362;6.588;2022-12-24T15:09:00;13.15;;;1.80;;
76765;SDS011;65707;52.362;6.588;2022-12-24T15:11:27;15.40;;;2.13;;
76765;SDS011;65707;52.362;6.588;2022-12-24T15:13:54;13.68;;;2.38;;
76765;SDS011;65707;52.362;6.588;2022-12-24T15:16:26;12.45;;;2.40;;
76765;SDS011;65707;52.362;6.588;2022-12-24T15:18:57;14.05;;;1.98;;
76765;SDS011;65707;52.362;6.588;2022-12-24T15:21:30;14.73;;;3.03;;
76765;SDS011;65707;52.362;6.588;2022-12-24T15:24:01;19.65;;;2.95;;
76765;SDS011;65707;52.362;6.588;2022-12-24T15:26:30;17.70;;;2.90;;
76765;SDS011;65707;52.362;6.588;2022-12-24T15:29:00;13.52;;;2.95;;
76765;SDS011;65707;52.362;6.588;2022-12-24T15:31:42;18.17;;;2.35;;